Nearby METAR Reports

 

NZWN - Wellington Intl, New Zealand
Distance from station: SSE 156km
Updated: Tue, 16-Oct-2018 11:30am NZDT
Partly cloudy
Partly cloudy
 Wind from N
Wind: N 22 km/h
Temperature: 15°C
Dew Point: 7°C
Humidity: 59%
Barometer: 1029 hPa
Clouds: Partly cloudy
Visibility: 10 km
Cloud details: Partly cloudy 1006 m
2018/10/15 22:30 NZWN 152230Z AUTO 35012KT 9999 SCT033/// 15/07 Q1029 NOSIG
NZAA - Auckland Intl Ar, New Zealand
Distance from station: N 334km
Updated: Tue, 16-Oct-2018 11:30am NZDT
Overcast
Overcast
 Wind from SW
Wind: SW 15 km/h
Temperature: 14°C
Dew Point: 8°C
Humidity: 67%
Barometer: 1031 hPa
Clouds: Overcast
Visibility: 10 km
Cloud details: Overcast 945 m
2018/10/15 22:30 NZAA 152230Z AUTO 22008KT 9999 OVC031/// 14/08 Q1031 NOSIG
 
NZWP - Whenuapai (nz-Af, New Zealand
Distance from station: N 359km
Updated: Wed, 26-Sep-2018 9:00am NZST
NOT Current
Nearby showers, Mostly cloudy
Nearby showers, Mostly cloudy
 Wind from WSW
Wind: WSW 35 km/h
Temperature: 14°C
Dew Point: 6°C
Humidity: 59%
Barometer: 1011 hPa
Summary: Nearby Showers
Clouds: Mostly cloudy
Cloud details: Partly cloudy 762 m
Mostly cloudy 1829 m
2018/09/25 21:00 NZWP 252100Z 24019KT 20KM VCSH SCT025 BKN060 14/06 Q1011 TEMPO 6000 SHRA
NZCH - Christchurch Int, New Zealand
Distance from station: SSW 412km
Updated: Tue, 16-Oct-2018 11:30am NZDT
Clear
Clear
 Wind from NE
Wind: NE 20 km/h
Temperature: 13°C
Dew Point: 5°C
Humidity: 59%
Barometer: 1027 hPa
Clouds: Clear
Visibility: 10 km
2018/10/15 22:30 NZCH 152230Z AUTO 04011KT 9999 NCD 13/05 Q1027 NOSIG

Metar display script from Saratoga-Weather.org